Time;durP1;ratioP1;P1;durP2;ratioP2;P2;SDS_P1;SDS_P2;PMS_P1;PMS_P2;Temp;Humidity;BMP_temperature;BMP_pressure;BME280_temperature;BME280_humidity;BME280_pressure;Samples;Min_cycle;Max_cycle;Signal;HPM_P1;HPM_P2
2021/03/10 00:01:52;;;;;;;;;;;2.40;97.20;;;;;;5116706;28;19916;-65
2021/03/10 00:04:18;;;;;;;;;;;2.40;97.30;;;;;;5115632;28;19935;-65
2021/03/10 00:06:43;;;;;;;;;;;2.40;97.70;;;;;;5117191;28;19916;-65
2021/03/10 00:09:10;;;;;;;;;;;2.30;97.70;;;;;;5106667;28;19923;-65
2021/03/10 00:11:36;;;;;;;;;;;2.40;98.00;;;;;;5109863;28;19918;-65
2021/03/10 00:14:01;;;;;;;;;;;2.40;97.80;;;;;;5113670;28;19912;-65
2021/03/10 00:16:28;;;;;;;;;;;2.40;97.90;;;;;;5097229;28;20316;-64
2021/03/10 00:18:54;;;;;;;;;;;2.40;97.90;;;;;;5116298;28;19951;-65
2021/03/10 00:21:19;;;;;;;;;;;2.50;97.90;;;;;;5098892;28;19955;-65
2021/03/10 00:23:45;;;;;;;;;;;2.50;97.70;;;;;;5092808;28;20001;-65
2021/03/10 00:26:12;;;;;;;;;;;2.60;97.90;;;;;;5092579;28;19961;-64
2021/03/10 00:28:37;;;;;;;;;;;2.60;97.70;;;;;;5116773;28;19947;-65
2021/03/10 00:31:04;;;;;;;;;;;2.60;97.90;;;;;;5116183;28;19951;-65
2021/03/10 00:33:30;;;;;;;;;;;2.60;97.70;;;;;;5098563;28;19911;-64
2021/03/10 00:35:56;;;;;;;;;;;2.60;97.70;;;;;;5113114;28;19999;-65
2021/03/10 00:38:23;;;;;;;;;;;2.60;97.60;;;;;;5112220;28;20002;-65
2021/03/10 00:40:50;;;;;;;;;;;2.60;97.70;;;;;;5112880;28;20304;-65
2021/03/10 00:43:16;;;;;;;;;;;2.60;97.70;;;;;;5097939;28;19927;-65
2021/03/10 00:45:42;;;;;;;;;;;2.60;97.60;;;;;;5098000;28;19920;-65
2021/03/10 00:48:08;;;;;;;;;;;2.60;97.70;;;;;;5094155;28;20263;-65
2021/03/10 00:50:36;;;;;;;;;;;2.60;97.80;;;;;;5116500;28;20010;-65
2021/03/10 00:53:02;;;;;;;;;;;2.60;97.70;;;;;;5109105;28;19918;-65
2021/03/10 00:55:28;;;;;;;;;;;2.70;97.60;;;;;;5116613;28;20010;-64
2021/03/10 00:57:54;;;;;;;;;;;2.70;97.70;;;;;;5116083;28;20340;-65
2021/03/10 01:00:21;;;;;;;;;;;2.70;97.80;;;;;;5113444;28;19915;-65
2021/03/10 01:02:47;;;;;;;;;;;2.80;97.80;;;;;;5117244;27;19938;-64
2021/03/10 01:05:14;;;;;;;;;;;2.80;97.70;;;;;;5097609;28;19968;-64
2021/03/10 01:07:40;;;;;;;;;;;2.70;97.50;;;;;;5116010;28;19915;-65
2021/03/10 01:10:07;;;;;;;;;;;2.70;97.70;;;;;;5108794;28;20018;-65
2021/03/10 01:12:33;;;;;;;;;;;2.70;97.60;;;;;;5114224;28;19973;-65
2021/03/10 01:15:00;;;;;;;;;;;2.70;97.80;;;;;;5115327;28;19920;-65
2021/03/10 01:17:26;;;;;;;;;;;2.70;97.70;;;;;;5098600;28;19972;-64
2021/03/10 01:19:52;;;;;;;;;;;2.70;97.80;;;;;;5111450;28;19911;-65
2021/03/10 01:22:18;;;;;;;;;;;2.70;97.80;;;;;;5111564;28;19954;-65
2021/03/10 01:24:44;;;;;;;;;;;2.70;97.70;;;;;;5112058;28;19916;-65
2021/03/10 01:27:16;;;;;;;;;;;2.70;97.60;;;;;;5105839;28;19984;-65
2021/03/10 01:29:46;;;;;;;;;;;2.70;97.70;;;;;;5103144;28;20312;-65
2021/03/10 01:32:11;;;;;;;;;;;2.70;97.60;;;;;;5113400;28;19912;-65
2021/03/10 01:34:37;;;;;;;;;;;2.70;97.70;;;;;;5115850;28;19912;-65
2021/03/10 01:37:03;;;;;;;;;;;2.70;97.70;;;;;;5115891;28;19931;-65
2021/03/10 01:39:31;;;;;;;;;;;2.70;97.70;;;;;;5108672;28;19911;-66
2021/03/10 01:41:58;;;;;;;;;;;2.70;97.70;;;;;;5089574;28;19912;-64
2021/03/10 01:44:24;;;;;;;;;;;2.80;97.60;;;;;;5113124;28;20006;-65
2021/03/10 01:46:50;;;;;;;;;;;2.70;97.50;;;;;;5114225;28;19907;-65
2021/03/10 01:49:16;;;;;;;;;;;2.70;97.60;;;;;;5106174;28;19919;-65
2021/03/10 01:51:45;;;;;;;;;;;2.70;97.70;;;;;;5111901;28;19920;-65
2021/03/10 01:54:11;;;;;;;;;;;2.70;97.40;;;;;;5089063;28;19912;-65
2021/03/10 01:56:39;;;;;;;;;;;2.70;97.40;;;;;;5114903;28;19911;-64
2021/03/10 01:59:05;;;;;;;;;;;2.70;97.40;;;;;;5116051;28;19933;-64
2021/03/10 02:01:33;;;;;;;;;;;2.60;97.50;;;;;;5114294;28;19918;-64
2021/03/10 02:04:03;;;;;;;;;;;2.60;97.60;;;;;;5114239;28;19919;-64
2021/03/10 02:06:47;;;;;;;;;;;2.60;97.70;;;;;;5104885;28;19916;-65
2021/03/10 02:09:36;;;;;;;;;;;2.70;97.60;;;;;;5087015;28;20010;-64
2021/03/10 02:12:15;;;;;;;;;;;2.70;97.60;;;;;;5067974;28;19920;-64
2021/03/10 02:14:47;;;;;;;;;;;2.70;97.70;;;;;;5115238;28;19912;-65
2021/03/10 02:17:17;;;;;;;;;;;2.70;97.50;;;;;;5096828;28;19924;-64
2021/03/10 02:19:49;;;;;;;;;;;2.70;97.70;;;;;;5114163;28;19915;-64
2021/03/10 02:22:21;;;;;;;;;;;2.70;97.70;;;;;;5110857;28;19918;-65
2021/03/10 02:24:56;;;;;;;;;;;2.70;97.50;;;;;;5106382;28;19916;-64
2021/03/10 02:27:32;;;;;;;;;;;2.60;97.40;;;;;;5105780;28;19918;-65
2021/03/10 02:30:03;;;;;;;;;;;2.60;97.50;;;;;;5094905;28;19916;-65
2021/03/10 02:32:30;;;;;;;;;;;2.70;97.50;;;;;;5113215;28;19913;-65
2021/03/10 02:34:57;;;;;;;;;;;2.60;97.50;;;;;;5108273;28;19915;-65
2021/03/10 02:37:27;;;;;;;;;;;2.70;97.60;;;;;;5097622;28;19916;-65
2021/03/10 02:39:53;;;;;;;;;;;2.70;97.50;;;;;;5108155;28;20389;-65
2021/03/10 02:42:19;;;;;;;;;;;2.70;97.40;;;;;;5115245;28;20010;-65
2021/03/10 02:44:45;;;;;;;;;;;2.70;97.40;;;;;;5114933;28;20475;-65
2021/03/10 02:47:12;;;;;;;;;;;2.70;97.40;;;;;;5101047;28;19916;-65
2021/03/10 02:49:38;;;;;;;;;;;2.70;97.40;;;;;;5112008;28;19955;-64
2021/03/10 02:52:04;;;;;;;;;;;2.80;97.50;;;;;;5083830;28;19958;-65
2021/03/10 02:54:30;;;;;;;;;;;2.80;97.30;;;;;;5114797;28;19951;-64
2021/03/10 02:56:56;;;;;;;;;;;2.80;97.40;;;;;;5113208;28;19911;-64
2021/03/10 02:59:22;;;;;;;;;;;2.80;97.40;;;;;;5109140;28;19922;-65
2021/03/10 03:01:49;;;;;;;;;;;2.80;97.30;;;;;;5115328;28;20014;-65
2021/03/10 03:04:15;;;;;;;;;;;2.70;97.30;;;;;;5100803;28;19912;-65
2021/03/10 03:06:43;;;;;;;;;;;2.70;97.40;;;;;;5115830;28;19920;-64
2021/03/10 03:09:09;;;;;;;;;;;2.70;97.40;;;;;;5111675;28;19915;-64
2021/03/10 03:11:36;;;;;;;;;;;2.70;97.40;;;;;;5115787;28;19947;-65
2021/03/10 03:14:04;;;;;;;;;;;2.70;97.40;;;;;;5109189;28;19923;-65
2021/03/10 03:16:30;;;;;;;;;;;2.70;97.50;;;;;;5111260;28;20012;-65
2021/03/10 03:18:56;;;;;;;;;;;2.70;97.50;;;;;;5100501;28;19977;-65
2021/03/10 03:21:22;;;;;;;;;;;2.70;97.30;;;;;;5109864;28;19951;-65
2021/03/10 03:23:50;;;;;;;;;;;2.70;97.40;;;;;;5117746;28;19916;-64
2021/03/10 03:26:17;;;;;;;;;;;2.80;97.40;;;;;;5117940;28;19919;-65
2021/03/10 03:28:44;;;;;;;;;;;2.80;97.20;;;;;;5115805;28;19929;-64
2021/03/10 03:31:10;;;;;;;;;;;2.90;97.20;;;;;;5116320;28;19912;-64
2021/03/10 03:33:39;;;;;;;;;;;2.90;97.20;;;;;;5116668;28;19998;-65
2021/03/10 03:36:05;;;;;;;;;;;2.90;97.20;;;;;;5117422;28;20616;-65
2021/03/10 03:38:31;;;;;;;;;;;2.90;97.10;;;;;;5097512;28;20090;-65
2021/03/10 03:40:56;;;;;;;;;;;2.80;97.30;;;;;;5119196;27;19947;-65
2021/03/10 03:43:23;;;;;;;;;;;2.70;97.50;;;;;;5113879;28;19947;-65
2021/03/10 03:45:49;;;;;;;;;;;2.60;97.90;;;;;;5109319;28;19935;-65
2021/03/10 03:48:17;;;;;;;;;;;2.50;98.00;;;;;;5091019;28;19916;-65
2021/03/10 03:50:43;;;;;;;;;;;2.50;98.00;;;;;;5116160;28;19926;-65
2021/03/10 03:53:09;;;;;;;;;;;2.50;98.00;;;;;;5116300;28;19912;-64
2021/03/10 03:55:35;;;;;;;;;;;2.50;98.00;;;;;;5086282;28;19911;-65
2021/03/10 03:58:02;;;;;;;;;;;2.40;98.00;;;;;;5098917;28;19921;-65
2021/03/10 04:00:27;;;;;;;;;;;2.40;98.00;;;;;;5115368;28;19938;-65
2021/03/10 04:02:53;;;;;;;;;;;2.40;98.00;;;;;;5095518;28;20296;-65
2021/03/10 04:05:20;;;;;;;;;;;2.40;98.00;;;;;;5109693;28;19916;-65
2021/03/10 04:07:49;;;;;;;;;;;2.40;98.00;;;;;;5099075;28;19920;-65
2021/03/10 04:10:15;;;;;;;;;;;2.40;98.00;;;;;;5117059;28;19950;-65
2021/03/10 04:12:41;;;;;;;;;;;2.40;98.00;;;;;;5103358;28;19912;-65
2021/03/10 04:15:08;;;;;;;;;;;2.40;98.00;;;;;;5111541;28;20336;-65
2021/03/10 04:17:34;;;;;;;;;;;2.30;98.00;;;;;;5117186;28;19916;-65
2021/03/10 04:19:59;;;;;;;;;;;2.30;98.00;;;;;;5116727;28;19923;-65
2021/03/10 04:22:25;;;;;;;;;;;2.30;98.00;;;;;;5099446;28;19916;-65
2021/03/10 04:24:51;;;;;;;;;;;2.30;98.00;;;;;;5080672;28;19970;-66
2021/03/10 04:27:18;;;;;;;;;;;2.30;98.00;;;;;;5088380;28;20358;-65
2021/03/10 04:29:43;;;;;;;;;;;2.30;98.00;;;;;;5116614;28;19951;-65
2021/03/10 04:32:09;;;;;;;;;;;2.30;98.00;;;;;;5088859;28;20019;-66
2021/03/10 04:34:34;;;;;;;;;;;2.30;98.00;;;;;;5125899;27;19922;-66
2021/03/10 04:37:00;;;;;;;;;;;2.30;98.00;;;;;;5102723;28;19912;-66
2021/03/10 04:39:25;;;;;;;;;;;2.30;98.00;;;;;;5082695;28;19908;-68
2021/03/10 04:41:51;;;;;;;;;;;2.30;98.00;;;;;;5104606;28;19967;-67
2021/03/10 04:44:16;;;;;;;;;;;2.30;98.00;;;;;;5112247;28;20380;-67
2021/03/10 04:46:42;;;;;;;;;;;2.30;98.00;;;;;;5111438;28;19926;-67
2021/03/10 04:49:09;;;;;;;;;;;2.30;98.00;;;;;;5115703;28;19922;-67
2021/03/10 04:51:35;;;;;;;;;;;2.30;98.00;;;;;;5113780;28;19951;-67
2021/03/10 04:54:00;;;;;;;;;;;2.40;98.00;;;;;;5099355;28;20328;-67
2021/03/10 04:56:26;;;;;;;;;;;2.40;98.00;;;;;;5115644;28;20002;-67
2021/03/10 04:58:51;;;;;;;;;;;2.40;98.00;;;;;;5096958;28;20259;-67
2021/03/10 05:01:17;;;;;;;;;;;2.40;98.00;;;;;;5111109;28;20297;-67
2021/03/10 05:03:42;;;;;;;;;;;2.40;98.00;;;;;;5116987;28;19926;-66
2021/03/10 05:06:08;;;;;;;;;;;2.30;98.00;;;;;;5109535;28;19913;-67
2021/03/10 05:08:34;;;;;;;;;;;2.30;98.00;;;;;;5115546;28;20308;-67
2021/03/10 05:10:59;;;;;;;;;;;2.30;98.00;;;;;;5106329;28;19912;-67
2021/03/10 05:13:25;;;;;;;;;;;2.30;98.00;;;;;;5108379;28;20372;-67
2021/03/10 05:15:53;;;;;;;;;;;2.30;98.00;;;;;;5106598;28;19920;-67
2021/03/10 05:18:19;;;;;;;;;;;2.30;98.00;;;;;;5114220;28;19916;-67
2021/03/10 05:20:44;;;;;;;;;;;2.30;98.00;;;;;;5114255;28;20232;-67
2021/03/10 05:23:10;;;;;;;;;;;2.30;98.00;;;;;;5113704;28;19912;-67
2021/03/10 05:25:35;;;;;;;;;;;2.40;98.00;;;;;;5103250;28;19911;-67
2021/03/10 05:28:01;;;;;;;;;;;2.40;98.00;;;;;;5113404;28;19919;-67
2021/03/10 05:30:27;;;;;;;;;;;2.40;98.00;;;;;;5093610;28;19923;-67
2021/03/10 05:32:52;;;;;;;;;;;2.40;98.00;;;;;;5112296;28;20004;-67
2021/03/10 05:35:18;;;;;;;;;;;2.40;98.00;;;;;;5096099;28;19915;-67
2021/03/10 05:37:43;;;;;;;;;;;2.40;98.00;;;;;;5115647;28;19915;-66
2021/03/10 05:40:09;;;;;;;;;;;2.40;98.00;;;;;;5116089;28;19969;-67
2021/03/10 05:42:37;;;;;;;;;;;2.30;98.00;;;;;;5115772;28;19918;-67
2021/03/10 05:45:03;;;;;;;;;;;2.30;98.00;;;;;;5109436;28;20006;-66
2021/03/10 05:47:29;;;;;;;;;;;2.30;98.00;;;;;;5115926;28;20014;-66
2021/03/10 05:49:54;;;;;;;;;;;2.30;98.00;;;;;;5112072;28;20292;-66
2021/03/10 05:52:24;;;;;;;;;;;2.30;98.00;;;;;;5116064;27;19953;-65
2021/03/10 05:54:54;;;;;;;;;;;2.30;98.00;;;;;;5095678;28;20364;-66
2021/03/10 05:57:21;;;;;;;;;;;2.30;98.00;;;;;;5111697;28;19912;-66
2021/03/10 05:59:46;;;;;;;;;;;2.30;98.00;;;;;;5113500;28;19916;-66
2021/03/10 06:02:12;;;;;;;;;;;2.40;98.00;;;;;;5108502;28;19955;-67
2021/03/10 06:04:38;;;;;;;;;;;2.40;98.00;;;;;;5114159;28;19968;-67
2021/03/10 06:07:05;;;;;;;;;;;2.40;98.00;;;;;;5115689;28;19912;-70
2021/03/10 06:09:30;;;;;;;;;;;2.40;98.00;;;;;;5102699;28;19941;-70
2021/03/10 06:11:57;;;;;;;;;;;2.50;97.90;;;;;;5115006;28;19916;-70
2021/03/10 06:14:23;;;;;;;;;;;2.50;98.00;;;;;;5108876;28;19920;-69
2021/03/10 06:17:02;;;;;;;;;;;2.60;98.00;;;;;;5111550;28;20334;-69
2021/03/10 06:19:28;;;;;;;;;;;2.60;97.90;;;;;;5117364;28;19919;-69
2021/03/10 06:21:53;;;;;;;;;;;2.70;97.70;;;;;;5106851;28;20319;-69
2021/03/10 06:24:19;;;;;;;;;;;2.70;97.50;;;;;;5115554;28;19912;-69
2021/03/10 06:26:54;;;;;;;;;;;2.70;97.70;;;;;;5115682;28;19912;-69
2021/03/10 06:29:20;;;;;;;;;;;2.80;97.50;;;;;;5114903;28;19915;-69
2021/03/10 06:31:46;;;;;;;;;;;2.90;97.60;;;;;;5114765;28;20344;-70
2021/03/10 06:34:12;;;;;;;;;;;2.90;97.30;;;;;;5097817;28;20309;-70
2021/03/10 06:36:39;;;;;;;;;;;2.90;97.20;;;;;;5118544;28;19915;-69
2021/03/10 06:39:05;;;;;;;;;;;2.90;97.30;;;;;;5119021;28;19911;-69
2021/03/10 06:41:32;;;;;;;;;;;3.00;97.20;;;;;;5119639;28;19907;-69
2021/03/10 06:43:58;;;;;;;;;;;3.00;97.10;;;;;;5119926;28;19912;-69
2021/03/10 06:46:23;;;;;;;;;;;3.00;97.00;;;;;;5118335;28;19908;-69
2021/03/10 06:48:59;;;;;;;;;;;3.00;96.90;;;;;;5118895;28;19915;-70
2021/03/10 06:51:25;;;;;;;;;;;3.10;96.70;;;;;;5118255;28;19933;-70
2021/03/10 06:53:51;;;;;;;;;;;3.10;96.80;;;;;;5118596;28;19912;-70
2021/03/10 06:56:17;;;;;;;;;;;3.10;96.70;;;;;;5119518;28;19915;-69
2021/03/10 06:58:53;;;;;;;;;;;3.20;96.80;;;;;;5118490;28;20225;-70
2021/03/10 07:01:18;;;;;;;;;;;3.30;96.50;;;;;;5091314;28;19912;-70
2021/03/10 07:03:46;;;;;;;;;;;3.30;96.60;;;;;;5118619;28;19908;-69
2021/03/10 07:06:11;;;;;;;;;;;3.40;96.70;;;;;;5117428;28;20205;-70
2021/03/10 07:08:38;;;;;;;;;;;3.40;96.10;;;;;;5111074;28;19915;-70
2021/03/10 07:11:04;;;;;;;;;;;3.40;96.20;;;;;;5118903;28;19912;-70
2021/03/10 07:13:30;;;;;;;;;;;3.40;96.20;;;;;;5117915;28;19908;-69
2021/03/10 07:15:56;;;;;;;;;;;3.50;96.10;;;;;;5117554;28;20061;-70
2021/03/10 07:18:22;;;;;;;;;;;3.40;95.90;;;;;;5118009;28;19915;-69
2021/03/10 07:20:48;;;;;;;;;;;3.40;96.20;;;;;;5119160;28;20025;-69
2021/03/10 07:23:15;;;;;;;;;;;3.40;96.00;;;;;;5118713;28;19955;-69
2021/03/10 07:25:42;;;;;;;;;;;3.40;96.00;;;;;;5097203;28;19999;-69
2021/03/10 07:28:15;;;;;;;;;;;3.40;96.20;;;;;;5119010;28;19908;-70
2021/03/10 07:30:41;;;;;;;;;;;3.40;96.40;;;;;;5116010;28;19915;-69
2021/03/10 07:33:07;;;;;;;;;;;3.40;96.10;;;;;;5110848;28;19912;-69
2021/03/10 07:35:33;;;;;;;;;;;3.40;96.10;;;;;;5112789;28;19938;-69
2021/03/10 07:37:59;;;;;;;;;;;3.40;96.00;;;;;;5114988;28;19913;-69
2021/03/10 07:40:24;;;;;;;;;;;3.50;95.90;;;;;;5110651;28;19957;-69
2021/03/10 07:42:56;;;;;;;;;;;3.50;95.80;;;;;;5089429;28;20228;-69
2021/03/10 07:45:40;;;;;;;;;;;3.60;95.70;;;;;;5108503;28;19920;-68
2021/03/10 07:48:05;;;;;;;;;;;3.70;95.40;;;;;;5118027;28;19911;-69
2021/03/10 07:50:42;;;;;;;;;;;3.80;94.90;;;;;;5118113;28;19957;-69
2021/03/10 07:53:07;;;;;;;;;;;3.80;94.90;;;;;;5118593;28;19944;-69
2021/03/10 07:55:42;;;;;;;;;;;3.80;94.60;;;;;;5118069;28;19954;-69
2021/03/10 07:58:08;;;;;;;;;;;3.90;95.00;;;;;;5113506;28;19919;-69
2021/03/10 08:00:34;;;;;;;;;;;3.90;95.10;;;;;;5107172;28;19912;-69
2021/03/10 08:02:59;;;;;;;;;;;3.90;94.80;;;;;;5080245;28;19908;-69
2021/03/10 08:05:26;;;;;;;;;;;4.00;94.70;;;;;;5111180;28;19958;-69
2021/03/10 08:08:08;;;;;;;;;;;4.00;94.20;;;;;;5117089;28;19944;-69
2021/03/10 08:10:34;;;;;;;;;;;4.00;93.90;;;;;;5106029;28;20311;-69
2021/03/10 08:13:00;;;;;;;;;;;3.90;94.30;;;;;;5092936;28;19912;-69
2021/03/10 08:15:25;;;;;;;;;;;3.90;94.40;;;;;;5116664;28;19983;-70
2021/03/10 08:18:06;;;;;;;;;;;3.90;94.30;;;;;;5117850;28;20373;-69
2021/03/10 08:20:36;;;;;;;;;;;3.90;94.80;;;;;;5110809;28;20273;-69
2021/03/10 08:23:05;;;;;;;;;;;3.90;94.70;;;;;;5117855;28;19919;-69
2021/03/10 08:25:33;;;;;;;;;;;3.80;94.20;;;;;;5117725;28;20033;-69
2021/03/10 08:28:19;;;;;;;;;;;3.80;94.60;;;;;;5117766;28;19930;-68
2021/03/10 08:30:45;;;;;;;;;;;3.70;94.60;;;;;;5114738;28;19923;-69
2021/03/10 08:33:12;;;;;;;;;;;3.70;94.80;;;;;;5117513;28;19999;-68
2021/03/10 08:35:38;;;;;;;;;;;3.70;94.70;;;;;;5098686;28;19946;-68
2021/03/10 08:38:04;;;;;;;;;;;3.70;94.80;;;;;;5099724;28;20252;-68
2021/03/10 08:40:34;;;;;;;;;;;3.80;94.60;;;;;;5116669;28;19912;-69
2021/03/10 08:43:00;;;;;;;;;;;3.80;94.00;;;;;;5117576;28;19937;-67
2021/03/10 08:45:30;;;;;;;;;;;4.00;94.10;;;;;;5098119;28;19912;-67
2021/03/10 08:48:09;;;;;;;;;;;4.10;93.50;;;;;;5117216;28;19916;-68
2021/03/10 08:50:37;;;;;;;;;;;4.10;93.50;;;;;;5116456;28;19923;-67
2021/03/10 08:53:04;;;;;;;;;;;4.00;93.60;;;;;;5102794;28;19920;-69
2021/03/10 08:55:29;;;;;;;;;;;4.00;94.50;;;;;;5096828;28;19908;-69
2021/03/10 08:57:57;;;;;;;;;;;4.00;93.80;;;;;;5114547;28;20014;-69
2021/03/10 09:00:25;;;;;;;;;;;4.10;93.90;;;;;;5107671;28;19916;-69
2021/03/10 09:02:51;;;;;;;;;;;4.20;93.80;;;;;;5096443;28;20305;-69
2021/03/10 09:05:23;;;;;;;;;;;4.40;93.00;;;;;;5105645;28;19916;-69
2021/03/10 09:07:49;;;;;;;;;;;4.60;92.80;;;;;;5098532;28;19977;-69
2021/03/10 09:10:16;;;;;;;;;;;4.70;92.80;;;;;;5116098;28;19920;-69
2021/03/10 09:12:43;;;;;;;;;;;5.00;92.10;;;;;;5098808;28;19919;-68
2021/03/10 09:15:15;;;;;;;;;;;5.30;91.20;;;;;;5115666;28;19916;-69
2021/03/10 09:17:41;;;;;;;;;;;5.40;89.60;;;;;;5116994;28;19918;-69
2021/03/10 09:20:10;;;;;;;;;;;5.40;89.50;;;;;;5115652;28;20320;-69
2021/03/10 09:22:45;;;;;;;;;;;5.30;89.30;;;;;;5098529;28;20205;-69
2021/03/10 09:25:12;;;;;;;;;;;5.30;89.10;;;;;;5116520;28;19920;-69
2021/03/10 09:27:38;;;;;;;;;;;5.50;89.00;;;;;;5098498;28;19963;-69
2021/03/10 09:30:08;;;;;;;;;;;5.60;88.80;;;;;;5114767;28;19963;-68
2021/03/10 09:32:38;;;;;;;;;;;5.70;88.80;;;;;;5116285;28;19912;-69
2021/03/10 09:35:09;;;;;;;;;;;5.70;88.60;;;;;;5116723;28;19998;-69
2021/03/10 09:37:42;;;;;;;;;;;5.80;88.30;;;;;;5110073;28;19920;-68
2021/03/10 09:40:08;;;;;;;;;;;6.10;87.80;;;;;;5109780;28;19919;-69
2021/03/10 09:42:33;;;;;;;;;;;6.40;86.30;;;;;;5116068;28;19911;-69
2021/03/10 09:44:59;;;;;;;;;;;6.50;86.60;;;;;;5115505;28;20040;-69
2021/03/10 09:47:25;;;;;;;;;;;6.80;86.10;;;;;;5116196;28;20056;-69
2021/03/10 09:49:52;;;;;;;;;;;6.80;84.30;;;;;;5115069;28;20328;-69
2021/03/10 09:52:18;;;;;;;;;;;6.90;84.80;;;;;;5116072;28;19912;-69
2021/03/10 09:54:50;;;;;;;;;;;7.00;84.40;;;;;;5098245;28;19908;-69
2021/03/10 09:57:22;;;;;;;;;;;7.40;83.70;;;;;;5115452;28;19919;-69
2021/03/10 09:59:48;;;;;;;;;;;7.40;82.50;;;;;;5115084;28;19951;-69
2021/03/10 10:02:15;;;;;;;;;;;7.20;82.70;;;;;;5097069;28;19961;-69
2021/03/10 10:04:41;;;;;;;;;;;7.10;82.20;;;;;;5116059;28;19951;-69
2021/03/10 10:07:08;;;;;;;;;;;7.00;83.20;;;;;;5115965;28;20228;-69
2021/03/10 10:09:36;;;;;;;;;;;7.80;81.60;;;;;;5114886;28;19920;-69
2021/03/10 10:12:02;;;;;;;;;;;7.80;79.10;;;;;;5119840;28;19916;-69
2021/03/10 10:14:28;;;;;;;;;;;7.30;79.50;;;;;;5120375;28;19918;-69
2021/03/10 10:16:53;;;;;;;;;;;7.00;80.60;;;;;;5119035;28;20021;-69
2021/03/10 10:19:19;;;;;;;;;;;7.10;81.60;;;;;;5101773;27;20213;-69
2021/03/10 10:21:47;;;;;;;;;;;7.20;81.00;;;;;;5120223;28;19912;-69
2021/03/10 10:24:19;;;;;;;;;;;7.20;81.20;;;;;;5119648;28;19912;-68
2021/03/10 10:26:45;;;;;;;;;;;7.20;81.50;;;;;;5119476;28;19998;-69
2021/03/10 10:29:10;;;;;;;;;;;7.40;81.70;;;;;;5118327;28;19995;-68
2021/03/10 10:31:36;;;;;;;;;;;7.60;79.40;;;;;;5109879;28;19912;-68
2021/03/10 10:34:09;;;;;;;;;;;7.10;80.30;;;;;;5102031;28;19959;-69
2021/03/10 10:36:35;;;;;;;;;;;7.00;80.20;;;;;;5101571;28;19990;-69
2021/03/10 10:39:00;;;;;;;;;;;6.80;80.70;;;;;;5111044;27;19912;-69
2021/03/10 10:41:26;;;;;;;;;;;6.90;81.20;;;;;;5099717;28;19908;-69
2021/03/10 10:43:51;;;;;;;;;;;7.00;80.10;;;;;;5114173;28;20335;-69
2021/03/10 10:46:17;;;;;;;;;;;7.30;79.70;;;;;;5118737;28;20041;-68
2021/03/10 10:48:42;;;;;;;;;;;7.70;79.00;;;;;;5118682;28;19915;-69
2021/03/10 10:51:08;;;;;;;;;;;7.90;77.80;;;;;;5118836;28;19922;-68
2021/03/10 10:53:33;;;;;;;;;;;8.10;77.50;;;;;;5101410;28;20224;-69
2021/03/10 10:55:59;;;;;;;;;;;8.40;76.60;;;;;;5119703;28;19931;-68
2021/03/10 10:58:24;;;;;;;;;;;8.50;75.50;;;;;;5118805;28;19915;-68
2021/03/10 11:00:50;;;;;;;;;;;8.30;74.40;;;;;;5117716;28;19993;-69
2021/03/10 11:03:16;;;;;;;;;;;8.70;74.20;;;;;;5119198;28;20216;-68
2021/03/10 11:05:41;;;;;;;;;;;8.90;72.00;;;;;;5119443;28;19911;-69
2021/03/10 11:08:07;;;;;;;;;;;8.50;71.60;;;;;;5119135;28;19907;-69
2021/03/10 11:10:32;;;;;;;;;;;8.50;72.10;;;;;;5116636;28;20304;-69
2021/03/10 11:12:58;;;;;;;;;;;8.20;72.10;;;;;;5119191;28;19908;-68
2021/03/10 11:15:23;;;;;;;;;;;8.20;71.50;;;;;;5117888;28;20015;-69
2021/03/10 11:17:49;;;;;;;;;;;8.40;72.30;;;;;;5114511;28;19912;-69
2021/03/10 11:20:14;;;;;;;;;;;8.50;71.50;;;;;;5119114;28;19911;-69
2021/03/10 11:22:40;;;;;;;;;;;8.50;70.80;;;;;;5118172;28;20220;-69
2021/03/10 11:25:07;;;;;;;;;;;8.50;70.00;;;;;;5118898;28;20251;-68
2021/03/10 11:27:32;;;;;;;;;;;8.50;69.50;;;;;;5118055;28;19920;-69
2021/03/10 11:29:58;;;;;;;;;;;8.80;69.40;;;;;;5117641;28;19916;-69
2021/03/10 11:32:23;;;;;;;;;;;9.10;68.70;;;;;;5118731;28;20223;-68
2021/03/10 11:34:49;;;;;;;;;;;9.40;67.60;;;;;;5119002;28;19918;-68
2021/03/10 11:37:15;;;;;;;;;;;9.80;66.80;;;;;;5117390;28;19970;-67
2021/03/10 11:39:40;;;;;;;;;;;10.30;66.70;;;;;;5098415;28;20355;-67
2021/03/10 11:42:07;;;;;;;;;;;10.10;65.60;;;;;;5100973;28;19908;-67
2021/03/10 11:44:32;;;;;;;;;;;10.10;66.30;;;;;;5118467;28;19916;-66
2021/03/10 11:46:58;;;;;;;;;;;9.90;65.80;;;;;;5117057;28;19919;-68
2021/03/10 11:49:23;;;;;;;;;;;9.70;66.00;;;;;;5117692;28;20273;-69
2021/03/10 11:51:49;;;;;;;;;;;9.60;66.60;;;;;;5132998;27;20223;-70
2021/03/10 11:54:15;;;;;;;;;;;9.30;67.20;;;;;;5119216;27;19912;-70
2021/03/10 11:56:40;;;;;;;;;;;9.10;67.70;;;;;;5117985;28;19964;-68
2021/03/10 11:59:06;;;;;;;;;;;9.00;68.70;;;;;;5109165;28;19955;-69
2021/03/10 12:01:31;;;;;;;;;;;8.80;68.90;;;;;;5106237;28;19930;-69
2021/03/10 12:03:57;;;;;;;;;;;8.70;68.70;;;;;;5118438;28;19933;-69
2021/03/10 12:06:28;;;;;;;;;;;8.30;69.10;;;;;;5117784;28;19916;-69
2021/03/10 12:08:54;;;;;;;;;;;8.00;68.30;;;;;;5116886;28;19911;-69
2021/03/10 12:11:22;;;;;;;;;;;7.70;68.70;;;;;;5117058;28;19918;-69
2021/03/10 12:13:48;;;;;;;;;;;7.90;69.50;;;;;;5098637;28;19912;-69
2021/03/10 12:16:13;;;;;;;;;;;8.40;69.10;;;;;;5102216;28;19924;-70
2021/03/10 12:18:39;;;;;;;;;;;8.80;67.40;;;;;;5098125;28;19958;-69
2021/03/10 12:21:05;;;;;;;;;;;8.60;67.90;;;;;;5104703;28;19965;-70
2021/03/10 12:23:31;;;;;;;;;;;8.20;68.80;;;;;;5117272;28;20021;-69
2021/03/10 12:25:56;;;;;;;;;;;8.20;68.80;;;;;;5113947;28;19912;-69
2021/03/10 12:28:22;;;;;;;;;;;8.40;68.90;;;;;;5115775;27;19912;-69
2021/03/10 12:30:47;;;;;;;;;;;8.50;69.20;;;;;;5111493;28;19942;-69
2021/03/10 12:33:13;;;;;;;;;;;8.60;68.00;;;;;;5116238;28;19922;-69
2021/03/10 12:35:39;;;;;;;;;;;8.80;67.10;;;;;;5105759;28;19970;-70
2021/03/10 12:38:04;;;;;;;;;;;9.00;67.90;;;;;;5108818;28;20292;-70
2021/03/10 12:40:30;;;;;;;;;;;9.30;68.20;;;;;;5108150;28;20328;-69
2021/03/10 12:42:55;;;;;;;;;;;9.50;67.00;;;;;;5090650;28;19915;-70
2021/03/10 12:45:21;;;;;;;;;;;9.60;66.20;;;;;;5103821;27;20328;-70
2021/03/10 12:47:47;;;;;;;;;;;9.60;66.70;;;;;;5110272;28;20002;-70
2021/03/10 12:50:13;;;;;;;;;;;9.40;66.00;;;;;;5116222;28;19919;-70
2021/03/10 12:52:38;;;;;;;;;;;9.10;66.40;;;;;;5114864;28;20246;-70
2021/03/10 12:55:05;;;;;;;;;;;8.70;67.80;;;;;;5111207;28;19920;-69
2021/03/10 12:57:30;;;;;;;;;;;8.80;68.00;;;;;;5126083;27;19915;-70
2021/03/10 12:59:56;;;;;;;;;;;8.80;67.70;;;;;;5114863;28;20049;-69
2021/03/10 13:02:21;;;;;;;;;;;8.40;69.20;;;;;;5136159;27;19919;-69
2021/03/10 13:04:50;;;;;;;;;;;8.30;69.20;;;;;;5129179;27;19911;-69
2021/03/10 13:07:15;;;;;;;;;;;8.20;69.50;;;;;;5117181;28;20357;-69
2021/03/10 13:09:41;;;;;;;;;;;8.40;69.70;;;;;;5115954;28;19919;-69
2021/03/10 13:12:07;;;;;;;;;;;8.40;69.80;;;;;;5117163;28;19908;-69
2021/03/10 13:14:32;;;;;;;;;;;8.60;69.50;;;;;;5097882;28;19957;-69
2021/03/10 13:16:58;;;;;;;;;;;8.90;68.70;;;;;;5115418;28;19920;-69
2021/03/10 13:19:26;;;;;;;;;;;8.90;67.90;;;;;;5098026;28;19911;-69
2021/03/10 13:21:51;;;;;;;;;;;8.50;68.10;;;;;;5116824;28;19995;-69
2021/03/10 13:24:18;;;;;;;;;;;8.30;68.40;;;;;;5116110;28;20380;-70
2021/03/10 13:26:44;;;;;;;;;;;8.30;68.20;;;;;;5116718;28;20009;-69
2021/03/10 13:29:09;;;;;;;;;;;8.70;67.70;;;;;;5101701;28;20006;-70
2021/03/10 13:31:35;;;;;;;;;;;9.20;66.60;;;;;;5095296;28;19912;-69
2021/03/10 13:34:01;;;;;;;;;;;9.00;66.50;;;;;;5101072;28;19915;-70
2021/03/10 13:36:27;;;;;;;;;;;9.20;65.50;;;;;;5116051;28;19916;-69
2021/03/10 13:38:52;;;;;;;;;;;9.50;65.70;;;;;;5112131;28;20053;-69
2021/03/10 13:41:18;;;;;;;;;;;9.80;64.30;;;;;;5106586;28;19912;-69
2021/03/10 13:43:43;;;;;;;;;;;10.30;64.40;;;;;;5098328;28;19994;-69
2021/03/10 13:46:09;;;;;;;;;;;10.10;63.50;;;;;;5115247;28;19908;-69
2021/03/10 13:48:35;;;;;;;;;;;9.70;63.80;;;;;;5115569;28;19916;-69
2021/03/10 13:51:00;;;;;;;;;;;9.30;63.70;;;;;;5098273;28;19911;-69
2021/03/10 13:53:27;;;;;;;;;;;9.40;64.00;;;;;;5116197;28;19943;-69
2021/03/10 13:55:52;;;;;;;;;;;9.60;63.00;;;;;;5116094;28;19919;-69
2021/03/10 13:58:18;;;;;;;;;;;9.40;62.40;;;;;;5115193;28;19912;-69
2021/03/10 14:00:43;;;;;;;;;;;9.40;63.20;;;;;;5114740;28;19994;-69
2021/03/10 14:03:09;;;;;;;;;;;9.90;62.80;;;;;;5115820;28;19978;-69
2021/03/10 14:05:35;;;;;;;;;;;9.90;62.30;;;;;;5116195;28;20142;-69
2021/03/10 14:08:03;;;;;;;;;;;9.90;62.40;;;;;;5114918;28;19923;-70
2021/03/10 14:10:29;;;;;;;;;;;9.70;62.90;;;;;;5097885;28;19970;-69
2021/03/10 14:12:54;;;;;;;;;;;9.10;64.50;;;;;;5116111;28;19908;-70
2021/03/10 14:15:20;;;;;;;;;;;9.60;64.10;;;;;;5114244;28;20316;-69
2021/03/10 14:17:49;;;;;;;;;;;9.80;62.90;;;;;;5115245;28;20001;-69
2021/03/10 14:20:16;;;;;;;;;;;10.00;62.70;;;;;;5124728;28;19958;-69
2021/03/10 14:22:42;;;;;;;;;;;10.10;62.10;;;;;;5136547;28;19991;-70
2021/03/10 14:25:12;;;;;;;;;;;10.10;61.90;;;;;;5116950;28;19919;-69
2021/03/10 14:27:38;;;;;;;;;;;9.60;62.00;;;;;;5114276;28;19918;-70